createdAt,value
2019-02-05T00:00:01.110Z,17
2019-02-05T00:01:01.096Z,16
2019-02-05T00:02:01.127Z,15
2019-02-05T00:06:01.094Z,17
2019-02-05T00:07:02.974Z,16
2019-02-05T00:08:01.096Z,17
2019-02-05T00:09:01.098Z,16
2019-02-05T00:10:01.094Z,17
2019-02-05T00:12:01.905Z,18
2019-02-05T00:13:01.095Z,17
2019-02-05T00:14:01.095Z,18
2019-02-05T00:15:01.095Z,18
2019-02-05T00:17:01.130Z,19
2019-02-05T00:20:01.081Z,18
2019-02-05T00:21:01.078Z,17
2019-02-05T00:22:01.112Z,15
2019-02-05T00:24:01.078Z,14
2019-02-05T00:25:01.086Z,15
2019-02-05T00:26:06.033Z,16
2019-02-05T00:27:01.079Z,17
2019-02-05T00:28:01.109Z,15
2019-02-05T00:30:01.081Z,14
2019-02-05T00:31:01.082Z,15
2019-02-05T00:32:01.114Z,16
2019-02-05T00:33:01.085Z,18
2019-02-05T00:34:01.795Z,17
2019-02-05T00:35:01.086Z,19
2019-02-05T00:36:01.086Z,20
2019-02-05T00:37:01.177Z,18
2019-02-05T00:38:01.083Z,16
2019-02-05T00:39:01.084Z,17
2019-02-05T00:41:01.084Z,15
2019-02-05T00:42:01.108Z,17
2019-02-05T00:44:01.081Z,16
2019-02-05T00:45:01.168Z,15
2019-02-05T00:46:01.083Z,17
2019-02-05T00:47:01.108Z,16
2019-02-05T00:50:01.229Z,18
2019-02-05T00:54:01.110Z,19
2019-02-05T00:55:01.082Z,17
2019-02-05T00:56:01.086Z,16
2019-02-05T00:57:01.110Z,19
2019-02-05T00:58:01.089Z,17
2019-02-05T00:59:01.087Z,18
2019-02-05T01:00:01.088Z,19
2019-02-05T01:02:01.112Z,18
2019-02-05T01:03:01.088Z,19
2019-02-05T01:05:01.087Z,18
2019-02-05T01:06:01.140Z,17
2019-02-05T01:07:01.092Z,18
2019-02-05T01:08:01.089Z,19
2019-02-05T01:09:01.093Z,18
2019-02-05T01:10:01.091Z,19
2019-02-05T01:11:01.178Z,20
2019-02-05T01:12:01.097Z,19
2019-02-05T01:13:01.091Z,17
2019-02-05T01:14:01.093Z,18
2019-02-05T01:15:01.090Z,19
2019-02-05T01:16:01.125Z,18
2019-02-05T01:17:02.147Z,17
2019-02-05T01:19:01.090Z,15
2019-02-05T01:20:01.089Z,14
2019-02-05T01:21:01.117Z,15
2019-02-05T01:22:01.089Z,16
2019-02-05T01:23:01.095Z,19
2019-02-05T01:25:01.090Z,20
2019-02-05T01:28:01.126Z,16
2019-02-05T01:29:01.092Z,18
2019-02-05T01:30:01.092Z,18
2019-02-05T01:31:01.124Z,17
2019-02-05T01:32:01.094Z,19
2019-02-05T01:33:01.094Z,20
2019-02-05T01:34:01.104Z,19
2019-02-05T01:37:01.537Z,18
2019-02-05T01:38:01.094Z,17
2019-02-05T01:39:01.093Z,16
2019-02-05T01:44:01.094Z,17
2019-02-05T01:45:01.121Z,17
2019-02-05T01:46:01.094Z,16
2019-02-05T01:47:01.094Z,15
2019-02-05T01:50:01.120Z,14
2019-02-05T01:51:01.092Z,16
2019-02-05T01:52:01.097Z,15
2019-02-05T01:53:01.228Z,16
2019-02-05T01:54:01.101Z,18
2019-02-05T01:56:01.125Z,17
2019-02-05T01:57:01.102Z,19
2019-02-05T01:58:01.096Z,17
2019-02-05T02:00:01.105Z,15
2019-02-05T02:01:01.078Z,16
2019-02-05T02:02:01.079Z,15
2019-02-05T02:03:01.217Z,16
2019-02-05T02:04:01.090Z,17
2019-02-05T02:05:01.111Z,19
2019-02-05T02:06:01.113Z,18
2019-02-05T02:07:01.080Z,19
2019-02-05T02:08:01.081Z,18
2019-02-05T02:10:01.143Z,16
2019-02-05T02:12:01.114Z,17
2019-02-05T02:13:01.082Z,16
2019-02-05T02:14:01.082Z,15
2019-02-05T02:15:01.080Z,16
2019-02-05T02:19:01.106Z,15
2019-02-05T02:20:01.701Z,14
2019-02-05T02:22:01.530Z,13
2019-02-05T02:23:01.114Z,15
2019-02-05T02:24:01.080Z,18
2019-02-05T02:27:01.082Z,19
2019-02-05T02:28:01.085Z,18
2019-02-05T02:29:01.089Z,17
2019-02-05T02:30:01.084Z,17
2019-02-05T02:33:01.083Z,15
2019-02-05T02:34:01.141Z,16
2019-02-05T02:35:01.091Z,17
2019-02-05T02:36:06.090Z,16
2019-02-05T02:37:01.089Z,17
2019-02-05T02:42:01.112Z,16
2019-02-05T02:43:01.087Z,17
2019-02-05T02:44:01.088Z,18
2019-02-05T02:45:01.093Z,18
2019-02-05T02:47:01.122Z,17
2019-02-05T02:48:01.088Z,15
2019-02-05T02:49:01.084Z,14
2019-02-05T02:51:01.085Z,13
2019-02-05T02:55:01.112Z,15
2019-02-05T02:57:04.688Z,17
2019-02-05T02:59:01.099Z,18
2019-02-05T03:00:01.086Z,17
2019-02-05T03:02:01.090Z,15
2019-02-05T03:03:01.116Z,17
2019-02-05T03:04:01.090Z,18
2019-02-05T03:05:01.086Z,19
2019-02-05T03:07:01.086Z,20
2019-02-05T03:09:01.121Z,18
2019-02-05T03:10:01.245Z,17
2019-02-05T03:11:01.086Z,18
2019-02-05T03:12:01.745Z,17
2019-02-05T03:15:01.089Z,19
2019-02-05T03:16:01.085Z,18
2019-02-05T03:17:01.607Z,20
2019-02-05T03:18:01.090Z,18
2019-02-05T03:19:01.085Z,19
2019-02-05T03:20:01.089Z,18
2019-02-05T03:21:01.086Z,17
2019-02-05T03:22:01.111Z,14
2019-02-05T03:23:01.086Z,17
2019-02-05T03:24:01.087Z,16
2019-02-05T03:26:01.093Z,15
2019-02-05T03:27:01.115Z,18
2019-02-05T03:28:01.088Z,15
2019-02-05T03:30:01.091Z,16
2019-02-05T03:32:01.115Z,18
2019-02-05T03:33:01.090Z,19
2019-02-05T03:36:01.113Z,20
2019-02-05T03:37:01.112Z,19
2019-02-05T03:38:01.091Z,21
2019-02-05T03:39:01.085Z,20
2019-02-05T03:40:01.086Z,19
2019-02-05T03:41:01.088Z,18
2019-02-05T03:42:01.111Z,17
2019-02-05T03:44:01.087Z,18
2019-02-05T03:45:01.092Z,20
2019-02-05T03:47:01.114Z,21
2019-02-05T03:49:01.086Z,20
2019-02-05T03:50:01.315Z,18
2019-02-05T03:52:01.114Z,17
2019-02-05T03:53:01.084Z,16
2019-02-05T03:54:01.088Z,17
2019-02-05T03:56:01.111Z,16
2019-02-05T03:57:01.088Z,15
2019-02-05T03:58:01.084Z,16
2019-02-05T03:59:01.088Z,15
2019-02-05T04:00:01.176Z,15
2019-02-05T04:01:01.112Z,16
2019-02-05T04:02:01.086Z,18
2019-02-05T04:04:01.085Z,20
2019-02-05T04:05:01.087Z,21
2019-02-05T04:06:01.112Z,19
2019-02-05T04:07:01.086Z,16
2019-02-05T04:09:02.145Z,15
2019-02-05T04:10:01.087Z,14
2019-02-05T04:11:01.086Z,16
2019-02-05T04:12:01.606Z,17
2019-02-05T04:13:01.089Z,16
2019-02-05T04:14:01.091Z,18
2019-02-05T04:15:01.268Z,17
2019-02-05T04:16:01.889Z,18
2019-02-05T04:17:01.089Z,17
2019-02-05T04:18:01.090Z,19
2019-02-05T04:19:01.090Z,16
2019-02-05T04:20:01.092Z,17
2019-02-05T04:21:01.125Z,16
2019-02-05T04:22:01.089Z,18
2019-02-05T04:23:01.095Z,16
2019-02-05T04:24:01.089Z,17
2019-02-05T04:26:01.124Z,18
2019-02-05T04:27:01.090Z,17
2019-02-05T04:30:01.091Z,16
2019-02-05T04:33:01.130Z,17
2019-02-05T04:35:01.093Z,18
2019-02-05T04:36:01.093Z,17
2019-02-05T04:37:02.145Z,18
2019-02-05T04:38:01.123Z,16
2019-02-05T04:39:01.092Z,17
2019-02-05T04:40:01.102Z,15
2019-02-05T04:42:01.090Z,13
2019-02-05T04:44:01.125Z,12
2019-02-05T04:45:01.116Z,13
2019-02-05T04:46:01.091Z,14
2019-02-05T04:47:01.091Z,15
2019-02-05T04:51:01.125Z,16
2019-02-05T04:53:01.090Z,18
2019-02-05T04:54:01.091Z,17
2019-02-05T04:55:01.092Z,18
2019-02-05T04:56:01.128Z,15
2019-02-05T04:57:01.099Z,17
2019-02-05T04:58:01.662Z,16
2019-02-05T04:59:01.091Z,17
2019-02-05T05:00:01.092Z,18
2019-02-05T05:01:01.131Z,19
2019-02-05T05:02:01.094Z,17
2019-02-05T05:03:01.099Z,18
2019-02-05T05:05:01.094Z,16
2019-02-05T05:06:01.140Z,15
2019-02-05T05:07:01.099Z,14
2019-02-05T05:09:01.110Z,13
2019-02-05T05:11:01.131Z,16
2019-02-05T05:12:01.097Z,15
2019-02-05T05:13:01.097Z,16
2019-02-05T05:14:01.096Z,18
2019-02-05T05:15:01.097Z,17
2019-02-05T05:16:01.132Z,15
2019-02-05T05:17:02.071Z,16
2019-02-05T05:18:01.097Z,15
2019-02-05T05:19:01.096Z,16
2019-02-05T05:21:01.129Z,17
2019-02-05T05:22:01.095Z,16
2019-02-05T05:24:01.098Z,15
2019-02-05T05:25:01.103Z,16
2019-02-05T05:26:02.317Z,18
2019-02-05T05:27:01.096Z,20
2019-02-05T05:28:09.618Z,19
2019-02-05T05:30:01.097Z,19
2019-02-05T05:31:01.095Z,17
2019-02-05T05:32:01.130Z,15
2019-02-05T05:34:01.078Z,16
2019-02-05T05:36:01.079Z,14
2019-02-05T05:37:01.083Z,15
2019-02-05T05:38:01.118Z,16
2019-02-05T05:39:01.089Z,15
2019-02-05T05:40:01.081Z,17
2019-02-05T05:41:01.085Z,19
2019-02-05T05:42:01.084Z,18
2019-02-05T05:44:01.141Z,20
2019-02-05T05:45:01.253Z,17
2019-02-05T05:46:01.096Z,18
2019-02-05T05:47:01.082Z,19
2019-02-05T05:48:01.245Z,20
2019-02-05T05:49:01.083Z,18
2019-02-05T05:50:01.109Z,17
2019-02-05T05:51:01.083Z,16
2019-02-05T05:52:01.081Z,17
2019-02-05T05:53:01.084Z,16
2019-02-05T05:54:01.084Z,15
2019-02-05T05:55:01.125Z,17
2019-02-05T05:56:01.101Z,19
2019-02-05T05:57:01.084Z,18
2019-02-05T05:58:01.084Z,17
2019-02-05T06:00:01.136Z,16
2019-02-05T06:01:01.083Z,14
2019-02-05T06:02:01.145Z,16
2019-02-05T06:03:01.108Z,15
2019-02-05T06:06:01.082Z,16
2019-02-05T06:08:01.110Z,17
2019-02-05T06:10:01.086Z,18
2019-02-05T06:13:01.108Z,19
2019-02-05T06:14:01.932Z,18
2019-02-05T06:15:01.083Z,19
2019-02-05T06:16:01.085Z,20
2019-02-05T06:17:01.090Z,18
2019-02-05T06:18:06.257Z,17
2019-02-05T06:20:01.084Z,16
2019-02-05T06:21:01.086Z,14
2019-02-05T06:22:01.089Z,16
2019-02-05T06:23:01.111Z,17
2019-02-05T06:24:01.084Z,18
2019-02-05T06:25:01.089Z,19
2019-02-05T06:26:01.087Z,20
2019-02-05T06:27:01.091Z,17
2019-02-05T06:28:01.111Z,15
2019-02-05T06:29:01.119Z,14
2019-02-05T06:30:01.087Z,13
2019-02-05T06:34:01.084Z,14
2019-02-05T06:35:01.087Z,13
2019-02-05T06:36:01.089Z,14
2019-02-05T06:37:01.085Z,19
2019-02-05T06:38:01.089Z,20
2019-02-05T06:39:01.088Z,19
2019-02-05T06:40:01.084Z,20
2019-02-05T06:42:01.115Z,17
2019-02-05T06:45:01.159Z,17
2019-02-05T06:46:01.084Z,18
2019-02-05T06:48:01.085Z,19
2019-02-05T06:49:01.086Z,20
2019-02-05T06:51:01.088Z,18
2019-02-05T06:52:01.114Z,19
2019-02-05T06:54:01.089Z,18
2019-02-05T06:55:01.087Z,16
2019-02-05T06:56:02.141Z,15
2019-02-05T06:57:01.115Z,13
2019-02-05T06:58:01.087Z,11
2019-02-05T06:59:01.087Z,14
2019-02-05T07:00:01.092Z,17
2019-02-05T07:01:01.087Z,18
2019-02-05T07:02:01.117Z,19
2019-02-05T07:04:01.090Z,17
2019-02-05T07:05:01.168Z,16
2019-02-05T07:06:01.091Z,15
2019-02-05T07:07:01.124Z,16
2019-02-05T07:11:01.093Z,15
2019-02-05T07:13:01.088Z,14
2019-02-05T07:14:01.090Z,15
2019-02-05T07:15:01.087Z,15
2019-02-05T07:16:01.093Z,17
2019-02-05T07:18:01.090Z,18
2019-02-05T07:19:01.089Z,20
2019-02-05T07:20:01.086Z,19
2019-02-05T07:21:01.091Z,18
2019-02-05T07:25:01.092Z,17
2019-02-05T07:26:01.092Z,16
2019-02-05T07:28:01.090Z,17
2019-02-05T07:29:02.109Z,15
2019-02-05T07:30:01.086Z,15
2019-02-05T07:31:01.086Z,16
2019-02-05T07:33:01.094Z,14
2019-02-05T07:35:01.089Z,13
2019-02-05T07:39:01.085Z,16
2019-02-05T07:40:01.086Z,15
2019-02-05T07:41:01.086Z,16
2019-02-05T07:44:01.086Z,15
2019-02-05T07:45:01.090Z,17
2019-02-05T07:46:01.092Z,19
2019-02-05T07:47:01.091Z,18
2019-02-05T07:48:01.089Z,19
2019-02-05T07:49:01.989Z,18
2019-02-05T07:50:01.087Z,16
2019-02-05T07:51:01.182Z,15
2019-02-05T07:53:01.091Z,14
2019-02-05T07:54:01.093Z,16
2019-02-05T07:55:01.092Z,17
2019-02-05T07:56:01.092Z,15
2019-02-05T07:57:01.093Z,16
2019-02-05T07:58:01.127Z,17
2019-02-05T07:59:09.751Z,16
2019-02-05T08:00:01.099Z,16
2019-02-05T08:01:01.230Z,18
2019-02-05T08:03:01.127Z,17
2019-02-05T08:04:01.098Z,18
2019-02-05T08:05:01.375Z,17
2019-02-05T08:09:01.096Z,16
2019-02-05T08:10:01.095Z,17
2019-02-05T08:11:01.102Z,16
2019-02-05T08:12:01.101Z,17
2019-02-05T08:13:06.096Z,18
2019-02-05T08:14:01.098Z,17
2019-02-05T08:15:01.098Z,17
2019-02-05T08:17:01.099Z,15
2019-02-05T08:18:06.096Z,13
2019-02-05T08:19:01.836Z,15
2019-02-05T08:20:01.094Z,14
2019-02-05T08:21:01.102Z,15
2019-02-05T08:22:01.102Z,18
2019-02-05T08:24:01.098Z,16
2019-02-05T08:25:06.108Z,18
2019-02-05T08:27:01.101Z,16
2019-02-05T08:28:01.098Z,18
2019-02-05T08:29:01.938Z,17
2019-02-05T08:30:01.126Z,18
2019-02-05T08:32:01.090Z,19
2019-02-05T08:33:01.079Z,20
2019-02-05T08:34:03.211Z,19
2019-02-05T08:35:01.118Z,20
2019-02-05T08:37:01.085Z,19
2019-02-05T08:38:01.081Z,18
2019-02-05T08:39:01.088Z,16
2019-02-05T08:40:01.142Z,17
2019-02-05T08:44:01.093Z,19
2019-02-05T08:45:01.669Z,19
2019-02-05T08:46:01.084Z,18
2019-02-05T08:49:01.082Z,16
2019-02-05T08:50:01.083Z,17
2019-02-05T08:51:01.087Z,18
2019-02-05T08:52:01.087Z,16
2019-02-05T08:53:01.132Z,17
2019-02-05T08:55:01.082Z,16
2019-02-05T08:56:01.084Z,17
2019-02-05T08:59:01.084Z,18
2019-02-05T09:00:01.085Z,20
2019-02-05T09:01:01.085Z,18
2019-02-05T09:02:01.085Z,21
2019-02-05T09:03:01.091Z,20
2019-02-05T09:04:01.083Z,18
2019-02-05T09:05:01.086Z,16
2019-02-05T09:06:01.891Z,17
2019-02-05T09:07:01.085Z,13
2019-02-05T09:09:01.085Z,15
2019-02-05T09:10:01.135Z,16
2019-02-05T09:11:01.089Z,15
2019-02-05T09:12:01.089Z,17
2019-02-05T09:13:01.087Z,20
2019-02-05T09:14:10.476Z,21
2019-02-05T09:15:01.088Z,19
2019-02-05T09:16:01.086Z,20
2019-02-05T09:17:01.100Z,19
2019-02-05T09:19:01.089Z,18
2019-02-05T09:20:01.087Z,17
2019-02-05T09:22:01.091Z,19
2019-02-05T09:23:02.211Z,15
2019-02-05T09:25:01.091Z,16
2019-02-05T09:26:01.089Z,15
2019-02-05T09:27:01.097Z,14
2019-02-05T09:28:01.088Z,15
2019-02-05T09:29:01.148Z,16
2019-02-05T09:30:01.092Z,18
2019-02-05T09:31:01.122Z,20
2019-02-05T09:34:01.088Z,21
2019-02-05T09:35:01.093Z,19
2019-02-05T09:36:01.129Z,16
2019-02-05T09:37:01.090Z,14
2019-02-05T09:39:01.094Z,13
2019-02-05T09:40:01.102Z,14
2019-02-05T09:41:01.775Z,17
2019-02-05T09:42:01.103Z,19
2019-02-05T09:43:01.091Z,17
2019-02-05T09:44:01.090Z,15
2019-02-05T09:45:01.093Z,14
2019-02-05T09:46:01.132Z,13
2019-02-05T09:48:01.153Z,15
2019-02-05T09:49:01.090Z,17
2019-02-05T09:50:01.093Z,18
2019-02-05T09:51:01.129Z,17
2019-02-05T09:54:01.092Z,18
2019-02-05T09:55:01.094Z,17
2019-02-05T09:56:01.122Z,19
2019-02-05T09:58:01.096Z,20
2019-02-05T09:59:01.121Z,19
2019-02-05T10:00:01.109Z,19
2019-02-05T10:01:01.095Z,17
2019-02-05T10:03:01.096Z,15
2019-02-05T10:04:01.227Z,16
2019-02-05T10:06:01.103Z,17
2019-02-05T10:07:01.094Z,18
2019-02-05T10:09:01.123Z,17
2019-02-05T10:10:01.098Z,16
2019-02-05T10:12:01.094Z,14
2019-02-05T10:13:01.096Z,13
2019-02-05T10:14:01.123Z,12
2019-02-05T10:15:01.100Z,11
2019-02-05T10:16:01.094Z,12
2019-02-05T10:17:02.920Z,13
2019-02-05T10:18:01.121Z,14
2019-02-05T10:19:01.096Z,17
2019-02-05T10:21:01.097Z,19
2019-02-05T10:22:01.095Z,17
2019-02-05T10:24:01.123Z,15
2019-02-05T10:25:01.102Z,16
2019-02-05T10:30:01.081Z,17
2019-02-05T10:32:01.084Z,16
2019-02-05T10:34:01.113Z,15
2019-02-05T10:36:01.480Z,16
2019-02-05T10:37:01.084Z,17
2019-02-05T10:40:01.081Z,18
2019-02-05T10:41:01.084Z,19
2019-02-05T10:42:06.095Z,18
2019-02-05T10:43:01.083Z,17
2019-02-05T10:44:01.084Z,19
2019-02-05T10:45:01.107Z,17
2019-02-05T10:47:01.204Z,19
2019-02-05T10:48:01.083Z,21
2019-02-05T10:49:03.234Z,20
2019-02-05T10:51:01.083Z,18
2019-02-05T10:52:02.092Z,15
2019-02-05T10:53:01.081Z,14
2019-02-05T10:54:01.081Z,15
2019-02-05T10:56:01.124Z,16
2019-02-05T10:58:01.081Z,18
2019-02-05T10:59:01.079Z,19
2019-02-05T11:00:08.346Z,19
2019-02-05T11:02:01.081Z,20
2019-02-05T11:03:01.085Z,19
2019-02-05T11:05:01.084Z,20
2019-02-05T11:07:01.082Z,18
2019-02-05T11:08:01.083Z,16
2019-02-05T11:10:01.163Z,14
2019-02-05T11:11:01.085Z,16
2019-02-05T11:12:01.085Z,17
2019-02-05T11:13:01.086Z,20
2019-02-05T11:14:01.084Z,18
2019-02-05T11:15:01.090Z,19
2019-02-05T11:16:01.084Z,17
2019-02-05T11:17:02.183Z,16
2019-02-05T11:18:01.085Z,14
2019-02-05T11:19:01.086Z,15
2019-02-05T11:20:01.190Z,14
2019-02-05T11:24:01.088Z,13
2019-02-05T11:25:01.222Z,14
2019-02-05T11:26:01.086Z,17
2019-02-05T11:27:02.052Z,18
2019-02-05T11:28:06.095Z,20
2019-02-05T11:29:01.107Z,21
2019-02-05T11:30:01.094Z,20
2019-02-05T11:31:01.088Z,18
2019-02-05T11:32:01.090Z,17
2019-02-05T11:33:01.092Z,14
2019-02-05T11:34:01.096Z,15
2019-02-05T11:35:01.090Z,14
2019-02-05T11:36:01.090Z,16
2019-02-05T11:37:01.088Z,13
2019-02-05T11:38:01.101Z,16
2019-02-05T11:39:01.087Z,14
2019-02-05T11:40:01.089Z,16
2019-02-05T11:42:01.089Z,17
2019-02-05T11:43:01.093Z,15
2019-02-05T11:45:01.126Z,14
2019-02-05T11:47:03.772Z,15
2019-02-05T11:50:01.091Z,16
2019-02-05T11:54:01.115Z,17
2019-02-05T11:55:01.089Z,18
2019-02-05T11:56:01.090Z,17
2019-02-05T11:57:01.088Z,18
2019-02-05T11:58:01.116Z,19
2019-02-05T11:59:01.089Z,18
2019-02-05T12:00:01.111Z,19
2019-02-05T12:02:01.092Z,18
2019-02-05T12:03:01.115Z,17
2019-02-05T12:04:01.088Z,16
2019-02-05T12:05:03.371Z,15
2019-02-05T12:06:01.098Z,16
2019-02-05T12:08:01.094Z,18
2019-02-05T12:12:01.115Z,20
2019-02-05T12:13:01.088Z,18
2019-02-05T12:14:01.090Z,17
2019-02-05T12:15:01.089Z,16
2019-02-05T12:17:01.128Z,15
2019-02-05T12:18:01.092Z,14
2019-02-05T12:20:01.089Z,16
2019-02-05T12:21:01.088Z,15
2019-02-05T12:22:01.119Z,16
2019-02-05T12:23:01.087Z,19
2019-02-05T12:26:01.089Z,18
2019-02-05T12:29:01.087Z,17
2019-02-05T12:30:01.088Z,16
2019-02-05T12:31:01.125Z,17
2019-02-05T12:33:01.955Z,16
2019-02-05T12:35:01.085Z,17
2019-02-05T12:36:01.086Z,18
2019-02-05T12:37:01.089Z,16
2019-02-05T12:38:01.090Z,15
2019-02-05T12:39:01.095Z,18
2019-02-05T12:40:01.087Z,16
2019-02-05T12:42:01.088Z,18
2019-02-05T12:43:01.089Z,20
2019-02-05T12:44:01.089Z,18
2019-02-05T12:45:01.091Z,19
2019-02-05T12:46:01.241Z,17
2019-02-05T12:48:01.086Z,16
2019-02-05T12:51:01.113Z,19
2019-02-05T12:53:01.087Z,18
2019-02-05T12:54:01.091Z,16
2019-02-05T12:56:01.118Z,17
2019-02-05T12:57:01.086Z,18
2019-02-05T12:58:01.094Z,20
2019-02-05T12:59:01.094Z,22
2019-02-05T13:00:01.091Z,22
2019-02-05T13:01:01.478Z,19
2019-02-05T13:02:01.087Z,18
2019-02-05T13:03:01.087Z,16
2019-02-05T13:04:01.088Z,15
2019-02-05T13:05:02.128Z,14
2019-02-05T13:06:01.118Z,17
2019-02-05T13:07:01.088Z,18
2019-02-05T13:10:01.089Z,19
2019-02-05T13:11:01.118Z,17
2019-02-05T13:15:01.120Z,17
2019-02-05T13:18:01.092Z,18
2019-02-05T13:19:01.089Z,19
2019-02-05T13:20:01.126Z,18
2019-02-05T13:21:01.091Z,19
2019-02-05T13:22:01.155Z,18
2019-02-05T13:26:01.095Z,16
2019-02-05T13:27:01.097Z,15
2019-02-05T13:30:06.095Z,15
2019-02-05T13:33:01.101Z,14
2019-02-05T13:34:01.105Z,12
2019-02-05T13:35:01.123Z,13
2019-02-05T13:37:01.093Z,14
2019-02-05T13:38:01.104Z,15
2019-02-05T13:41:01.092Z,17
2019-02-05T13:44:01.124Z,19
2019-02-05T13:45:01.096Z,17
2019-02-05T13:47:01.089Z,18
2019-02-05T13:49:02.017Z,17
2019-02-05T13:50:01.089Z,18
2019-02-05T13:51:01.089Z,16
2019-02-05T13:53:01.089Z,17
2019-02-05T13:56:01.091Z,18
2019-02-05T13:57:01.093Z,19
2019-02-05T13:58:01.090Z,18
2019-02-05T13:59:01.130Z,17
2019-02-05T14:00:01.106Z,19
2019-02-05T14:01:01.096Z,18
2019-02-05T14:02:01.096Z,17
2019-02-05T14:04:01.132Z,16
2019-02-05T14:05:01.106Z,17
2019-02-05T14:06:01.097Z,18
2019-02-05T14:07:01.096Z,17
2019-02-05T14:10:01.100Z,16
2019-02-05T14:11:01.106Z,15
2019-02-05T14:13:01.102Z,16
2019-02-05T14:14:01.131Z,18
2019-02-05T14:15:01.100Z,17
2019-02-05T14:18:01.094Z,16
2019-02-05T14:21:01.102Z,17
2019-02-05T14:22:01.096Z,16
2019-02-05T14:23:01.145Z,14
2019-02-05T14:25:01.096Z,16
2019-02-05T14:28:01.093Z,18
2019-02-05T14:30:01.095Z,16
2019-02-05T14:32:01.096Z,17
2019-02-05T14:33:01.098Z,16
2019-02-05T14:34:01.098Z,15
2019-02-05T14:35:01.123Z,16
2019-02-05T14:36:01.093Z,17
2019-02-05T14:37:01.093Z,19
2019-02-05T14:38:01.093Z,20
2019-02-05T14:42:01.094Z,19
2019-02-05T14:43:01.097Z,18
2019-02-05T14:44:01.133Z,17
2019-02-05T14:45:01.097Z,15
2019-02-05T14:46:01.094Z,16
2019-02-05T14:48:01.096Z,17
2019-02-05T14:50:01.092Z,20
2019-02-05T14:51:01.092Z,19
2019-02-05T14:52:01.092Z,18
2019-02-05T14:53:01.095Z,20
2019-02-05T14:54:01.102Z,19
2019-02-05T14:55:06.099Z,18
2019-02-05T14:56:01.093Z,17
2019-02-05T14:57:01.094Z,16
2019-02-05T14:59:01.079Z,15
2019-02-05T15:00:01.079Z,16
2019-02-05T15:01:01.081Z,15
2019-02-05T15:02:01.081Z,14
2019-02-05T15:03:02.056Z,13
2019-02-05T15:04:01.087Z,15
2019-02-05T15:06:01.084Z,16
2019-02-05T15:07:01.085Z,19
2019-02-05T15:08:01.082Z,20
2019-02-05T15:09:01.082Z,17
2019-02-05T15:10:01.121Z,18
2019-02-05T15:12:01.085Z,17
2019-02-05T15:14:01.085Z,19
2019-02-05T15:15:01.097Z,18
2019-02-05T15:16:01.087Z,17
2019-02-05T15:17:01.082Z,19
2019-02-05T15:18:01.081Z,17
2019-02-05T15:20:01.119Z,18
2019-02-05T15:21:01.086Z,16
2019-02-05T15:22:01.089Z,15
2019-02-05T15:23:01.083Z,16
2019-02-05T15:24:01.083Z,15
2019-02-05T15:26:01.083Z,17
2019-02-05T15:27:01.081Z,16
2019-02-05T15:28:01.083Z,15
2019-02-05T15:29:01.085Z,14
2019-02-05T15:30:01.109Z,14
2019-02-05T15:32:01.084Z,16
2019-02-05T15:33:01.145Z,18
2019-02-05T15:34:01.085Z,19
2019-02-05T15:36:01.090Z,17
2019-02-05T15:38:01.085Z,16
2019-02-05T15:40:01.113Z,17
2019-02-05T15:41:01.085Z,16
2019-02-05T15:45:01.111Z,15
2019-02-05T15:46:01.085Z,16
2019-02-05T15:47:01.084Z,17
2019-02-05T15:49:01.087Z,16
2019-02-05T15:52:01.088Z,14
2019-02-05T15:53:01.086Z,13
2019-02-05T15:54:01.087Z,15
2019-02-05T15:55:01.115Z,14
2019-02-05T15:56:01.090Z,15
2019-02-05T15:57:01.090Z,16
2019-02-05T15:58:01.087Z,18
2019-02-05T15:59:01.113Z,16
2019-02-05T16:00:01.088Z,16
2019-02-05T16:01:01.108Z,17
2019-02-05T16:02:06.127Z,16
2019-02-05T16:03:01.089Z,15
2019-02-05T16:04:01.121Z,16
2019-02-05T16:05:01.088Z,15
2019-02-05T16:06:01.087Z,14
2019-02-05T16:08:01.092Z,15
2019-02-05T16:09:01.091Z,13
2019-02-05T16:10:01.226Z,16
2019-02-05T16:12:01.090Z,17
2019-02-05T16:13:02.936Z,15
2019-02-05T16:14:01.089Z,18
2019-02-05T16:15:01.375Z,17
2019-02-05T16:17:01.093Z,16
2019-02-05T16:18:01.093Z,18
2019-02-05T16:19:01.125Z,17
2019-02-05T16:22:01.097Z,19
2019-02-05T16:23:01.091Z,18
2019-02-05T16:24:01.121Z,19
2019-02-05T16:26:01.096Z,20
2019-02-05T16:28:01.096Z,17
2019-02-05T16:30:01.091Z,17
2019-02-05T16:32:01.092Z,16
2019-02-05T16:33:01.095Z,19
2019-02-05T16:34:01.129Z,20
2019-02-05T16:35:01.093Z,21
2019-02-05T16:38:01.096Z,20
2019-02-05T16:39:01.128Z,19
2019-02-05T16:40:01.097Z,17
2019-02-05T16:41:01.094Z,16
2019-02-05T16:42:01.102Z,17
2019-02-05T16:45:01.096Z,17
2019-02-05T16:47:01.079Z,16
2019-02-05T16:48:02.126Z,15
2019-02-05T16:50:01.080Z,13
2019-02-05T16:51:01.078Z,15
2019-02-05T16:53:01.078Z,14
2019-02-05T16:55:01.078Z,16
2019-02-05T16:56:01.080Z,15
2019-02-05T16:57:01.077Z,17
2019-02-05T16:58:01.079Z,16
2019-02-05T16:59:01.081Z,17
2019-02-05T17:00:01.105Z,16
2019-02-05T17:02:06.079Z,14
2019-02-05T17:03:01.078Z,16
2019-02-05T17:05:01.076Z,15
2019-02-05T17:06:01.078Z,16
2019-02-05T17:07:01.077Z,17
2019-02-05T17:09:01.084Z,16
2019-02-05T17:12:01.082Z,15
2019-02-05T17:15:01.080Z,17
2019-02-05T17:17:01.077Z,18
2019-02-05T17:18:01.076Z,19
2019-02-05T17:19:01.077Z,20
2019-02-05T17:21:01.079Z,19
2019-02-05T17:22:01.077Z,18
2019-02-05T17:23:01.193Z,16
2019-02-05T17:24:01.078Z,13
2019-02-05T17:25:01.113Z,12
2019-02-05T17:28:01.085Z,14
2019-02-05T17:29:01.077Z,17
2019-02-05T17:30:01.080Z,17
2019-02-05T17:31:01.117Z,16
2019-02-05T17:32:01.078Z,18
2019-02-05T17:35:01.077Z,17
2019-02-05T17:36:01.083Z,18
2019-02-05T17:37:01.111Z,19
2019-02-05T17:38:01.077Z,18
2019-02-05T17:39:01.081Z,17
2019-02-05T17:43:01.106Z,18
2019-02-05T17:44:01.107Z,20
2019-02-05T17:45:01.079Z,21
2019-02-05T17:46:01.080Z,20
2019-02-05T17:47:01.077Z,18
2019-02-05T17:48:01.078Z,17
2019-02-05T17:49:02.186Z,15
2019-02-05T17:50:01.078Z,13
2019-02-05T17:51:01.080Z,15
2019-02-05T17:52:01.077Z,17
2019-02-05T18:00:01.082Z,19
2019-02-05T18:01:01.081Z,18
2019-02-05T18:05:01.080Z,17
2019-02-05T18:08:01.077Z,16
2019-02-05T18:09:01.080Z,17
2019-02-05T18:10:01.084Z,18
2019-02-05T18:13:01.077Z,19
2019-02-05T18:14:01.079Z,18
2019-02-05T18:15:01.108Z,17
2019-02-05T18:17:01.082Z,18
2019-02-05T18:18:01.086Z,17
2019-02-05T18:19:01.078Z,16
2019-02-05T18:21:02.137Z,15
2019-02-05T18:22:01.078Z,14
2019-02-05T18:23:01.077Z,16
2019-02-05T18:25:01.079Z,17
2019-02-05T18:28:01.114Z,15
2019-02-05T18:29:01.083Z,17
2019-02-05T18:30:01.084Z,17
2019-02-05T18:31:01.080Z,18
2019-02-05T18:32:01.079Z,17
2019-02-05T18:33:03.454Z,18
2019-02-05T18:34:01.123Z,16
2019-02-05T18:35:01.084Z,15
2019-02-05T18:36:01.081Z,17
2019-02-05T18:37:01.083Z,16
2019-02-05T18:38:01.081Z,15
2019-02-05T18:39:01.120Z,16
2019-02-05T18:41:01.083Z,15
2019-02-05T18:42:01.083Z,16
2019-02-05T18:43:01.084Z,19
2019-02-05T18:44:01.083Z,17
2019-02-05T18:45:01.086Z,17
2019-02-05T18:47:01.084Z,16
2019-02-05T18:55:01.083Z,19
2019-02-05T18:56:01.084Z,18
2019-02-05T18:57:01.083Z,19
2019-02-05T18:58:08.675Z,17
2019-02-05T18:59:01.120Z,15
2019-02-05T19:00:01.109Z,13
2019-02-05T19:03:14.749Z,14
2019-02-05T19:04:01.086Z,16
2019-02-05T19:05:01.139Z,17
2019-02-05T19:06:01.086Z,16
2019-02-05T19:08:01.083Z,15
2019-02-05T19:09:01.084Z,13
2019-02-05T19:10:01.089Z,14
2019-02-05T19:11:01.114Z,16
2019-02-05T19:12:04.239Z,15
2019-02-05T19:13:01.086Z,18
2019-02-05T19:14:01.085Z,20
2019-02-05T19:15:01.086Z,19
2019-02-05T19:17:01.122Z,20
2019-02-05T19:18:01.088Z,17
2019-02-05T19:21:01.084Z,19
2019-02-05T19:22:01.089Z,18
2019-02-05T19:24:01.220Z,17
2019-02-05T19:25:01.089Z,16
2019-02-05T19:26:01.086Z,14
2019-02-05T19:28:01.084Z,15
2019-02-05T19:29:01.245Z,14
2019-02-05T19:30:01.085Z,15
2019-02-05T19:33:01.089Z,14
2019-02-05T19:35:01.087Z,15
2019-02-05T19:36:01.089Z,13
2019-02-05T19:37:01.106Z,14
2019-02-05T19:38:01.086Z,15
2019-02-05T19:40:01.117Z,14
2019-02-05T19:42:01.086Z,13
2019-02-05T19:43:01.088Z,11
2019-02-05T19:44:01.090Z,12
2019-02-05T19:45:01.145Z,13
2019-02-05T19:46:01.088Z,14
2019-02-05T19:47:01.265Z,15
2019-02-05T19:48:01.123Z,17
2019-02-05T19:49:02.066Z,16
2019-02-05T19:55:01.129Z,15
2019-02-05T19:56:01.085Z,17
2019-02-05T19:57:01.086Z,16
2019-02-05T19:59:01.087Z,18
2019-02-05T20:00:01.118Z,19